Time;durP1;ratioP1;P1;durP2;ratioP2;P2;SDS_P1;SDS_P2;PMS_P1;PMS_P2;Temp;Humidity;BMP_temperature;BMP_pressure;BME280_temperature;BME280_humidity;BME280_pressure;Samples;Min_cycle;Max_cycle;Signal;HPM_P1;HPM_P2
2022/05/19 00:02:20;;;;;;;0.10;0.10;;;22.50;79.60;;;;;;4970927;28;20029;-66
2022/05/19 00:04:49;;;;;;;0.08;0.08;;;22.40;79.90;;;;;;4954651;28;20037;-66
2022/05/19 00:07:15;;;;;;;0.10;0.10;;;22.40;79.70;;;;;;4971924;28;20080;-66
2022/05/19 00:09:44;;;;;;;0.57;0.52;;;22.20;80.30;;;;;;4971668;28;20569;-66
2022/05/19 00:12:17;;;;;;;0.17;0.05;;;22.20;80.00;;;;;;4972062;28;20035;-68
2022/05/19 00:14:44;;;;;;;0.35;0.10;;;22.20;79.70;;;;;;4970913;28;20030;-66
2022/05/19 00:17:10;;;;;;;0.00;0.00;;;22.20;79.80;;;;;;4970452;28;20497;-67
2022/05/19 00:19:35;;;;;;;0.20;0.20;;;22.20;79.70;;;;;;4969925;28;20039;-66
2022/05/19 00:22:01;;;;;;;0.25;0.05;;;22.10;80.40;;;;;;4971559;28;20030;-66
2022/05/19 00:24:28;;;;;;;0.10;0.05;;;22.00;80.30;;;;;;4971705;28;20038;-67
2022/05/19 00:26:54;;;;;;;0.32;0.30;;;21.90;80.90;;;;;;4970718;28;20034;-66
2022/05/19 00:29:19;;;;;;;0.40;0.28;;;21.80;80.40;;;;;;4971178;28;20031;-67
2022/05/19 00:31:45;;;;;;;0.00;0.00;;;21.80;80.80;;;;;;4971720;28;20035;-67
2022/05/19 00:34:11;;;;;;;0.08;0.08;;;21.80;80.80;;;;;;4970471;28;20394;-67
2022/05/19 00:36:37;;;;;;;1.50;0.40;;;21.70;82.20;;;;;;4970731;28;20037;-66
2022/05/19 00:39:04;;;;;;;0.65;0.52;;;21.70;81.20;;;;;;4970091;28;20033;-66
2022/05/19 00:41:31;;;;;;;0.00;0.00;;;21.70;81.50;;;;;;4970271;28;20027;-66
2022/05/19 00:44:05;;;;;;;3.58;1.10;;;21.70;81.10;;;;;;4971388;28;20027;-67
2022/05/19 00:46:52;;;;;;;0.00;0.00;;;21.70;81.20;;;;;;4970346;28;20034;-67
2022/05/19 00:49:39;;;;;;;0.00;0.00;;;21.70;81.50;;;;;;4969981;28;20520;-67
2022/05/19 00:52:21;;;;;;;0.00;0.00;;;21.60;81.80;;;;;;4971416;28;20497;-66
2022/05/19 00:55:09;;;;;;;0.28;0.20;;;21.60;81.90;;;;;;4971345;28;20500;-66
2022/05/19 00:57:49;;;;;;;0.00;0.00;;;21.60;81.90;;;;;;4971140;28;20030;-66
2022/05/19 01:00:21;;;;;;;0.57;0.52;;;21.50;82.10;;;;;;4975506;28;20054;-66
2022/05/19 01:03:05;;;;;;;1.55;0.25;;;21.50;82.20;;;;;;4973974;28;20034;-67
2022/05/19 01:05:41;;;;;;;0.10;0.10;;;21.40;82.40;;;;;;4968940;28;20030;-66
2022/05/19 01:08:28;;;;;;;0.10;0.10;;;21.40;82.50;;;;;;4971028;28;20042;-67
2022/05/19 01:10:57;;;;;;;0.03;0.03;;;21.40;82.60;;;;;;4970056;28;20027;-66
2022/05/19 01:13:23;;;;;;;0.60;0.45;;;21.40;82.80;;;;;;4973644;28;20038;-67
2022/05/19 01:15:53;;;;;;;0.00;0.00;;;21.30;83.10;;;;;;4974702;28;20031;-66
2022/05/19 01:18:20;;;;;;;0.10;0.10;;;21.30;82.80;;;;;;4974083;28;20027;-67
2022/05/19 01:20:47;;;;;;;0.35;0.35;;;21.30;82.90;;;;;;4957620;28;20118;-67
2022/05/19 01:23:50;;;;;;;0.00;0.00;;;21.30;83.00;;;;;;4973675;28;20030;-67
2022/05/19 01:26:32;;;;;;;0.00;0.00;;;21.20;83.20;;;;;;4974982;28;20118;-66
2022/05/19 01:28:59;;;;;;;0.47;0.43;;;21.10;83.40;;;;;;4973712;28;20023;-66
2022/05/19 01:31:33;;;;;;;0.00;0.00;;;21.10;83.30;;;;;;4973973;28;20038;-66
2022/05/19 01:34:00;;;;;;;0.20;0.10;;;21.00;83.70;;;;;;4974534;28;20049;-66
2022/05/19 01:36:26;;;;;;;2.70;0.80;;;21.00;83.40;;;;;;4974693;28;20027;-66
2022/05/19 01:39:08;;;;;;;0.45;0.13;;;21.00;83.50;;;;;;4974275;28;20089;-66
2022/05/19 01:42:07;;;;;;;0.00;0.00;;;21.00;83.40;;;;;;4973486;28;20038;-67
2022/05/19 01:45:01;;;;;;;0.20;0.20;;;20.90;83.20;;;;;;4973828;28;20058;-67
2022/05/19 01:47:35;;;;;;;0.05;0.03;;;21.00;83.00;;;;;;4974940;28;20440;-66
2022/05/19 01:50:14;;;;;;;0.17;0.17;;;20.90;82.80;;;;;;4974304;28;20066;-66
2022/05/19 01:52:56;;;;;;;0.20;0.10;;;20.90;83.30;;;;;;4974328;28;20078;-66
2022/05/19 01:55:48;;;;;;;0.00;0.00;;;20.80;83.30;;;;;;4958289;28;20077;-67
2022/05/19 01:58:26;;;;;;;0.03;0.03;;;20.80;83.30;;;;;;4974314;28;20034;-67
2022/05/19 02:00:58;;;;;;;0.00;0.00;;;20.80;83.50;;;;;;4974317;28;20026;-67
2022/05/19 02:03:49;;;;;;;0.00;0.00;;;20.70;83.60;;;;;;4972959;28;20482;-66
2022/05/19 02:06:45;;;;;;;0.05;0.05;;;20.70;83.60;;;;;;4974208;28;20039;-67
2022/05/19 02:09:21;;;;;;;0.00;0.00;;;20.60;84.20;;;;;;4973818;28;20042;-66
2022/05/19 02:11:54;;;;;;;0.00;0.00;;;20.60;83.70;;;;;;4988684;23;20058;-75
2022/05/19 02:14:30;;;;;;;0.10;0.10;;;20.60;83.50;;;;;;4963052;28;20031;-77
2022/05/19 02:16:57;;;;;;;0.30;0.30;;;20.50;83.70;;;;;;4957466;28;20035;-77
2022/05/19 02:19:30;;;;;;;0.22;0.20;;;20.30;84.70;;;;;;4956505;28;20031;-78
2022/05/19 02:21:56;;;;;;;0.75;0.45;;;20.20;85.00;;;;;;4953174;28;20067;-77
2022/05/19 02:24:26;;;;;;;0.20;0.15;;;20.20;84.70;;;;;;4953243;29;20074;-77
2022/05/19 02:26:52;;;;;;;0.20;0.20;;;20.30;84.40;;;;;;4952987;29;20129;-78
2022/05/19 02:29:26;;;;;;;0.00;0.00;;;20.30;84.00;;;;;;4953071;29;20443;-77
2022/05/19 02:31:52;;;;;;;0.10;0.10;;;20.40;83.70;;;;;;4937222;29;20180;-77
2022/05/19 02:34:17;;;;;;;0.25;0.20;;;20.50;83.40;;;;;;4954155;29;20566;-78
2022/05/19 02:36:43;;;;;;;0.75;0.60;;;20.40;83.20;;;;;;4954091;29;20089;-77
2022/05/19 02:39:10;;;;;;;0.35;0.22;;;20.40;82.80;;;;;;4954193;29;20101;-77
2022/05/19 02:41:36;;;;;;;48.88;1.27;;;20.40;83.90;;;;;;4953041;29;20063;-75
2022/05/19 02:44:02;;;;;;;0.00;0.00;;;20.30;82.80;;;;;;4954144;29;20445;-77
2022/05/19 02:46:28;;;;;;;0.10;0.10;;;20.30;83.00;;;;;;4954141;29;20114;-75
2022/05/19 02:48:58;;;;;;;0.00;0.00;;;20.30;82.90;;;;;;4953620;29;20118;-75
2022/05/19 02:51:23;;;;;;;0.22;0.22;;;20.40;82.80;;;;;;4953042;29;20071;-76
2022/05/19 02:53:49;;;;;;;0.30;0.30;;;20.30;82.70;;;;;;4953854;29;20062;-76
2022/05/19 02:56:15;;;;;;;0.00;0.00;;;20.30;82.70;;;;;;4952852;29;20060;-75
2022/05/19 02:58:41;;;;;;;0.00;0.00;;;20.30;82.70;;;;;;4953419;29;20037;-76
2022/05/19 03:01:08;;;;;;;0.10;0.10;;;20.30;83.00;;;;;;4936725;29;20035;-76
2022/05/19 03:03:34;;;;;;;0.10;0.10;;;20.20;83.70;;;;;;4945232;28;20158;-76
2022/05/19 03:05:59;;;;;;;1.75;0.45;;;20.00;84.80;;;;;;4934200;29;20546;-76
2022/05/19 03:08:25;;;;;;;0.00;0.00;;;19.80;85.60;;;;;;4941350;29;20607;-76
2022/05/19 03:10:51;;;;;;;0.00;0.00;;;19.70;85.80;;;;;;4923985;29;20034;-76
2022/05/19 03:13:21;;;;;;;0.00;0.00;;;19.70;86.00;;;;;;4938000;29;20118;-76
2022/05/19 03:15:48;;;;;;;0.00;0.00;;;19.70;85.80;;;;;;4945817;29;20155;-76
2022/05/19 03:18:15;;;;;;;0.05;0.05;;;19.80;85.40;;;;;;4952171;28;20038;-76
2022/05/19 03:20:41;;;;;;;0.50;0.50;;;19.80;85.20;;;;;;4935155;29;20027;-76
2022/05/19 03:23:07;;;;;;;1.13;0.28;;;19.70;85.40;;;;;;4953394;29;20039;-76
2022/05/19 03:25:33;;;;;;;0.00;0.00;;;19.70;85.40;;;;;;4941201;29;20031;-76
2022/05/19 03:27:59;;;;;;;0.15;0.15;;;19.70;85.40;;;;;;4934123;29;20408;-76
2022/05/19 03:30:25;;;;;;;0.05;0.00;;;19.60;85.60;;;;;;4932590;29;20043;-76
2022/05/19 03:32:51;;;;;;;0.00;0.00;;;19.60;85.50;;;;;;4932379;29;20150;-76
2022/05/19 03:35:17;;;;;;;0.20;0.20;;;19.70;85.50;;;;;;4938894;29;20035;-72
2022/05/19 03:37:44;;;;;;;0.10;0.10;;;19.70;85.60;;;;;;4951756;29;20029;-71
2022/05/19 03:40:13;;;;;;;0.00;0.00;;;19.80;85.50;;;;;;4935209;29;20061;-73
2022/05/19 03:42:38;;;;;;;0.00;0.00;;;19.80;84.80;;;;;;4951264;29;20031;-71
2022/05/19 03:45:06;;;;;;;3.67;0.77;;;19.80;85.10;;;;;;4952638;29;20098;-71
2022/05/19 03:47:32;;;;;;;0.05;0.05;;;19.80;85.10;;;;;;4944158;29;20043;-72
2022/05/19 03:49:58;;;;;;;0.20;0.20;;;19.70;85.80;;;;;;4952374;29;20537;-72
2022/05/19 03:52:24;;;;;;;1.10;1.00;;;19.70;85.30;;;;;;4950825;29;20038;-72
2022/05/19 03:54:50;;;;;;;0.52;0.20;;;19.70;85.20;;;;;;4951159;29;20027;-71
2022/05/19 03:57:21;;;;;;;0.10;0.10;;;19.70;85.50;;;;;;4952438;29;20237;-72
2022/05/19 03:59:47;;;;;;;0.68;0.20;;;19.60;85.90;;;;;;4952271;29;20027;-74
2022/05/19 04:02:14;;;;;;;0.03;0.03;;;19.60;86.00;;;;;;4951009;29;20038;-73
2022/05/19 04:04:40;;;;;;;0.22;0.20;;;19.60;85.80;;;;;;4948932;28;20027;-75
2022/05/19 04:07:06;;;;;;;0.00;0.00;;;19.60;85.90;;;;;;4951120;29;20032;-68
2022/05/19 04:09:31;;;;;;;0.00;0.00;;;19.60;86.10;;;;;;4946883;29;20035;-64
2022/05/19 04:11:57;;;;;;;0.10;0.10;;;19.50;86.20;;;;;;4956373;28;20039;-63
2022/05/19 04:14:23;;;;;;;0.00;0.00;;;19.50;86.60;;;;;;4951322;29;20090;-64
2022/05/19 04:16:51;;;;;;;0.30;0.20;;;19.60;86.60;;;;;;4935023;29;20044;-63
2022/05/19 04:19:17;;;;;;;0.08;0.08;;;19.60;86.30;;;;;;4951572;29;20027;-63
2022/05/19 04:21:44;;;;;;;0.28;0.28;;;19.60;87.00;;;;;;4951157;29;20046;-63
2022/05/19 04:24:11;;;;;;;0.00;0.00;;;19.60;86.50;;;;;;4952322;29;20114;-65
2022/05/19 04:26:36;;;;;;;0.52;0.50;;;19.60;85.80;;;;;;4950856;28;20031;-65
2022/05/19 04:29:03;;;;;;;0.00;0.00;;;19.60;86.50;;;;;;4950387;29;20078;-64
2022/05/19 04:31:28;;;;;;;2.72;1.27;;;19.50;87.30;;;;;;4950540;28;20024;-64
2022/05/19 04:33:54;;;;;;;2.30;1.33;;;19.40;88.40;;;;;;4951356;29;20038;-63
2022/05/19 04:36:20;;;;;;;1.55;1.30;;;19.40;88.30;;;;;;4951720;29;20484;-64
2022/05/19 04:38:45;;;;;;;0.10;0.10;;;19.50;89.50;;;;;;4950800;28;20152;-66
2022/05/19 04:41:11;;;;;;;0.10;0.10;;;19.50;88.90;;;;;;4951380;29;20431;-64
2022/05/19 04:43:38;;;;;;;0.15;0.15;;;19.60;87.90;;;;;;4951589;29;20407;-64
2022/05/19 04:46:04;;;;;;;0.17;0.17;;;19.70;88.30;;;;;;4952050;29;20105;-65
2022/05/19 04:48:29;;;;;;;0.30;0.30;;;19.60;88.30;;;;;;4950222;29;20377;-63
2022/05/19 04:50:58;;;;;;;0.03;0.03;;;19.80;87.90;;;;;;4951524;29;20083;-63
2022/05/19 04:53:26;;;;;;;0.30;0.30;;;19.80;87.70;;;;;;4951722;29;20034;-64
2022/05/19 04:55:53;;;;;;;0.15;0.15;;;19.80;87.70;;;;;;4933898;28;20500;-64
2022/05/19 04:58:21;;;;;;;18.52;7.95;;;19.90;87.10;;;;;;4949358;29;20066;-64
2022/05/19 05:00:49;;;;;;;1.58;1.20;;;19.90;88.00;;;;;;4951270;29;20031;-64
2022/05/19 05:03:14;;;;;;;0.20;0.20;;;20.00;87.00;;;;;;4933928;29;20046;-63
2022/05/19 05:05:40;;;;;;;0.00;0.00;;;20.00;86.90;;;;;;4950416;29;20027;-65
2022/05/19 05:08:06;;;;;;;0.00;0.00;;;20.20;86.20;;;;;;4951609;29;20039;-67
2022/05/19 05:10:32;;;;;;;0.05;0.05;;;20.20;86.10;;;;;;4949978;29;20057;-66
2022/05/19 05:13:06;;;;;;;0.03;0.03;;;20.30;86.10;;;;;;4951095;29;20039;-66
2022/05/19 05:15:31;;;;;;;0.00;0.00;;;20.40;85.60;;;;;;4949922;29;20114;-67
2022/05/19 05:17:57;;;;;;;0.30;0.30;;;20.30;86.10;;;;;;4915782;28;20102;-67
2022/05/19 05:20:23;;;;;;;0.22;0.22;;;20.40;85.60;;;;;;4948945;28;20035;-67
2022/05/19 05:22:49;;;;;;;0.20;0.20;;;20.50;85.60;;;;;;4951032;29;20042;-67
2022/05/19 05:25:16;;;;;;;0.47;0.45;;;20.60;85.40;;;;;;4951337;29;20038;-67
2022/05/19 05:27:45;;;;;;;0.25;0.20;;;20.70;85.00;;;;;;4950460;29;20035;-67
2022/05/19 05:30:12;;;;;;;0.30;0.20;;;20.70;86.50;;;;;;4951423;29;20444;-67
2022/05/19 05:32:38;;;;;;;1.40;0.68;;;20.80;85.80;;;;;;4934166;29;20032;-67
2022/05/19 05:35:08;;;;;;;0.00;0.00;;;20.80;86.20;;;;;;4950336;29;20027;-67
2022/05/19 05:37:34;;;;;;;0.98;0.65;;;20.90;89.00;;;;;;4950327;28;20031;-67
2022/05/19 05:40:01;;;;;;;0.08;0.08;;;20.90;90.40;;;;;;4951176;28;20034;-67
2022/05/19 05:42:27;;;;;;;0.13;0.13;;;20.70;91.20;;;;;;4950146;28;20431;-67
2022/05/19 05:44:53;;;;;;;0.20;0.20;;;20.60;91.80;;;;;;4954040;28;20043;-67
2022/05/19 05:47:18;;;;;;;0.00;0.00;;;20.40;92.60;;;;;;4953655;28;20109;-67
2022/05/19 05:49:44;;;;;;;0.70;0.47;;;20.40;92.90;;;;;;4954792;29;20039;-67
2022/05/19 05:52:10;;;;;;;0.00;0.00;;;20.40;93.20;;;;;;4954730;29;20032;-67
2022/05/19 05:54:36;;;;;;;0.20;0.20;;;20.40;93.60;;;;;;4953674;29;20102;-67
2022/05/19 05:57:02;;;;;;;0.13;0.13;;;20.20;94.10;;;;;;4946856;29;20098;-68
2022/05/19 05:59:28;;;;;;;0.20;0.20;;;20.30;94.20;;;;;;4952273;28;20812;-68
2022/05/19 06:01:53;;;;;;;0.28;0.28;;;20.50;94.20;;;;;;4951624;29;20110;-68
2022/05/19 06:04:19;;;;;;;0.05;0.03;;;20.50;94.30;;;;;;4954562;29;20038;-68
2022/05/19 06:06:46;;;;;;;0.00;0.00;;;20.70;94.20;;;;;;4953564;29;20019;-69
2022/05/19 06:09:15;;;;;;;9.45;1.45;;;20.80;94.20;;;;;;4954241;28;20619;-69
2022/05/19 06:11:42;;;;;;;0.10;0.10;;;20.90;94.10;;;;;;4953365;28;20035;-68
2022/05/19 06:14:09;;;;;;;1.13;0.63;;;20.90;94.00;;;;;;4953476;29;20122;-69
2022/05/19 06:16:34;;;;;;;1.55;0.73;;;20.80;94.20;;;;;;4943497;29;20034;-68
2022/05/19 06:19:00;;;;;;;0.15;0.15;;;21.00;93.80;;;;;;4918231;29;20032;-69
2022/05/19 06:21:26;;;;;;;0.00;0.00;;;21.00;93.80;;;;;;4934904;29;20036;-68
2022/05/19 06:23:52;;;;;;;0.17;0.17;;;21.20;94.00;;;;;;4950287;29;20748;-69
2022/05/19 06:26:18;;;;;;;0.63;0.50;;;21.20;93.50;;;;;;4953219;29;20035;-70
2022/05/19 06:28:43;;;;;;;0.45;0.45;;;21.30;93.50;;;;;;4953478;29;20055;-68
2022/05/19 06:31:09;;;;;;;0.00;0.00;;;21.40;92.80;;;;;;4954188;29;20038;-69
2022/05/19 06:33:36;;;;;;;5.90;2.05;;;21.60;92.00;;;;;;4953903;29;20039;-68
2022/05/19 06:36:04;;;;;;;1.10;0.70;;;21.50;92.10;;;;;;4952667;29;20494;-66
2022/05/19 06:38:31;;;;;;;0.13;0.10;;;21.40;91.80;;;;;;4952419;29;20034;-66
2022/05/19 06:43:46;;;;;;;0.80;0.20;;;21.60;91.40;;;;;;4953124;29;20046;-66
2022/05/19 06:46:12;;;;;;;0.00;0.00;;;21.70;91.30;;;;;;4952179;29;20448;-66
2022/05/19 06:48:38;;;;;;;2.60;0.75;;;21.70;91.20;;;;;;4951210;28;20039;-66
2022/05/19 06:51:04;;;;;;;0.98;0.82;;;21.80;91.30;;;;;;4946208;28;20066;-67
2022/05/19 06:53:29;;;;;;;0.52;0.47;;;21.90;91.10;;;;;;4946605;28;20086;-67
2022/05/19 06:55:55;;;;;;;0.30;0.30;;;21.80;90.90;;;;;;4949464;28;20479;-67
2022/05/19 06:58:21;;;;;;;0.30;0.30;;;21.80;90.60;;;;;;4934338;29;20408;-66
2022/05/19 07:00:47;;;;;;;1.60;0.55;;;22.00;90.70;;;;;;4944635;29;20455;-66
2022/05/19 07:03:12;;;;;;;0.25;0.15;;;22.20;88.10;;;;;;4950078;29;20031;-67
2022/05/19 07:05:39;;;;;;;0.10;0.10;;;22.30;88.10;;;;;;4951944;29;20144;-66
2022/05/19 07:08:06;;;;;;;0.10;0.10;;;22.40;86.20;;;;;;4951692;28;20152;-66
2022/05/19 07:10:33;;;;;;;0.10;0.10;;;22.50;86.50;;;;;;4948976;29;20032;-67
2022/05/19 07:12:59;;;;;;;0.65;0.65;;;22.60;86.10;;;;;;4951451;29;20031;-65
2022/05/19 07:15:27;;;;;;;0.10;0.10;;;22.60;86.50;;;;;;4952944;29;20102;-65
2022/05/19 07:17:54;;;;;;;15.57;1.10;;;22.70;85.40;;;;;;4952676;29;20027;-65
2022/05/19 07:23:06;;;;;;;0.10;0.10;;;22.80;84.70;;;;;;4951732;29;20031;-66
2022/05/19 07:25:32;;;;;;;0.00;0.00;;;22.90;82.50;;;;;;4947756;29;20046;-66
2022/05/19 07:27:58;;;;;;;0.00;0.00;;;23.10;81.20;;;;;;4937284;29;20081;-66
2022/05/19 07:30:24;;;;;;;8.50;1.77;;;23.20;80.30;;;;;;4936899;29;20031;-66
2022/05/19 07:32:50;;;;;;;0.43;0.20;;;23.40;80.30;;;;;;4952625;29;20043;-66
2022/05/19 07:35:18;;;;;;;0.52;0.45;;;23.40;77.90;;;;;;4949902;29;20030;-67
2022/05/19 07:37:46;;;;;;;0.00;0.00;;;23.40;81.80;;;;;;4951085;29;20086;-66
2022/05/19 07:40:13;;;;;;;0.35;0.32;;;23.40;79.10;;;;;;4934338;29;20032;-66
2022/05/19 07:42:39;;;;;;;0.17;0.17;;;23.50;80.80;;;;;;4952195;29;20027;-66
2022/05/19 07:45:06;;;;;;;0.35;0.35;;;23.60;77.80;;;;;;4949560;29;20068;-66
2022/05/19 07:47:32;;;;;;;0.08;0.08;;;23.70;77.80;;;;;;4952233;29;20113;-66
2022/05/19 07:49:58;;;;;;;0.10;0.10;;;23.70;78.00;;;;;;4951349;29;20035;-66
2022/05/19 07:52:26;;;;;;;1.45;1.02;;;23.80;79.10;;;;;;4952324;29;20057;-65
2022/05/19 07:54:53;;;;;;;0.00;0.00;;;23.60;78.70;;;;;;4947697;29;20042;-65
2022/05/19 07:57:19;;;;;;;0.00;0.00;;;23.80;79.60;;;;;;4951235;29;20027;-66
2022/05/19 07:59:45;;;;;;;0.38;0.38;;;23.90;78.40;;;;;;4952244;29;20042;-66
2022/05/19 08:02:12;;;;;;;0.15;0.10;;;23.80;78.20;;;;;;4950562;29;20167;-66
2022/05/19 08:04:39;;;;;;;0.10;0.10;;;23.90;77.90;;;;;;4941098;29;20043;-66
2022/05/19 08:07:05;;;;;;;0.13;0.10;;;24.00;79.00;;;;;;4949011;28;20058;-66
2022/05/19 08:15:37;;;;;;;0.05;0.05;;;23.80;75.20;;;;;;4882235;29;20132;-61
2022/05/19 08:18:16;;;;;;;0.10;0.10;;;23.90;74.40;;;;;;4926101;29;20439;-61
2022/05/19 08:20:50;;;;;;;0.75;0.25;;;23.80;74.50;;;;;;4926817;29;20032;-61
2022/05/19 08:23:25;;;;;;;0.00;0.00;;;23.70;77.40;;;;;;4897185;29;20050;-61
2022/05/19 08:25:51;;;;;;;0.20;0.20;;;23.80;77.40;;;;;;4920966;29;20518;-61
2022/05/19 08:28:18;;;;;;;3.70;0.77;;;23.80;77.80;;;;;;4927548;29;20048;-62
2022/05/19 08:30:48;;;;;;;0.28;0.28;;;23.90;77.20;;;;;;4929040;29;20393;-63
2022/05/19 08:33:16;;;;;;;0.00;0.00;;;23.90;78.60;;;;;;4932335;29;20035;-63
2022/05/19 08:35:43;;;;;;;0.28;0.28;;;24.20;75.60;;;;;;4910631;29;20032;-63
2022/05/19 08:38:09;;;;;;;0.00;0.00;;;24.30;76.10;;;;;;4896903;29;20032;-62
2022/05/19 08:41:04;;;;;;;0.00;0.00;;;24.50;78.00;;;;;;4915935;29;20579;-63
2022/05/19 08:43:45;;;;;;;0.85;0.43;;;24.40;76.50;;;;;;4926287;29;20036;-62
2022/05/19 08:46:20;;;;;;;0.30;0.30;;;24.20;77.20;;;;;;4910197;29;20047;-63
2022/05/19 08:48:50;;;;;;;0.10;0.10;;;24.40;79.30;;;;;;4926985;29;20036;-63
2022/05/19 08:51:17;;;;;;;7.50;1.70;;;24.50;77.80;;;;;;4916407;29;20070;-63
2022/05/19 08:53:43;;;;;;;0.05;0.05;;;24.50;78.20;;;;;;4931211;29;20024;-62
2022/05/19 08:56:25;;;;;;;0.10;0.10;;;24.80;77.00;;;;;;4923316;29;20067;-63
2022/05/19 08:59:47;;;;;;;0.05;0.05;;;24.80;77.90;;;;;;4932453;29;20028;-63
2022/05/19 09:02:20;;;;;;;0.20;0.20;;;25.00;77.50;;;;;;4924571;29;20824;-63
2022/05/19 09:05:08;;;;;;;0.00;0.00;;;25.10;77.80;;;;;;4917140;29;20029;-63
2022/05/19 09:08:02;;;;;;;0.73;0.22;;;25.20;78.50;;;;;;4918878;29;20396;-63
2022/05/19 09:10:40;;;;;;;0.00;0.00;;;25.50;77.00;;;;;;4904781;29;20031;-63
2022/05/19 09:13:17;;;;;;;0.00;0.00;;;25.50;79.70;;;;;;4931460;29;20408;-63
2022/05/19 09:15:47;;;;;;;0.22;0.22;;;25.80;77.20;;;;;;4924233;29;20047;-62
2022/05/19 09:18:18;;;;;;;1.40;0.67;;;25.90;76.20;;;;;;4930874;29;20392;-62
2022/05/19 09:20:55;;;;;;;;;;;25.80;77.10;;;;;;4930358;29;20466;-62
2022/05/19 09:23:23;;;;;;;1.20;0.80;;;25.90;76.10;;;;;;4917429;29;19915;-62
2022/05/19 09:25:57;;;;;;;0.00;0.00;;;25.70;76.80;;;;;;4915584;29;20066;-62
2022/05/19 09:28:23;;;;;;;0.00;0.00;;;26.00;77.10;;;;;;4916003;29;20042;-63
2022/05/19 09:30:54;;;;;;;1.08;0.13;;;26.10;75.90;;;;;;4912148;29;20098;-63
2022/05/19 09:33:32;;;;;;;;;;;26.30;76.80;;;;;;4919888;29;20039;-62
2022/05/19 09:35:59;;;;;;;0.10;0.10;;;26.20;76.40;;;;;;4930631;29;20391;-64
2022/05/19 09:38:28;;;;;;;0.32;0.30;;;26.40;76.70;;;;;;4900324;29;20035;-63
2022/05/19 09:41:21;;;;;;;0.28;0.28;;;26.40;77.60;;;;;;4924364;29;20075;-63
2022/05/19 09:43:56;;;;;;;1.10;0.93;;;26.60;77.20;;;;;;4892847;29;20036;-63
2022/05/19 09:46:22;;;;;;;0.08;0.08;;;26.20;77.60;;;;;;4924668;29;20028;-63
2022/05/19 09:49:04;;;;;;;1.02;0.47;;;26.50;77.40;;;;;;4916169;29;20055;-63
2022/05/19 09:51:40;;;;;;;0.00;0.00;;;26.60;76.90;;;;;;4922813;29;20031;-63
2022/05/19 09:54:12;;;;;;;0.15;0.08;;;26.70;76.80;;;;;;4929470;29;20031;-63
2022/05/19 09:56:46;;;;;;;0.10;0.10;;;26.60;77.70;;;;;;4916107;29;20058;-63
2022/05/19 09:59:23;;;;;;;0.40;0.30;;;26.90;77.30;;;;;;4935197;29;20394;-64
2022/05/19 10:02:04;;;;;;;0.22;0.15;;;27.10;78.00;;;;;;4906443;29;20473;-64
2022/05/19 10:04:39;;;;;;;0.13;0.10;;;27.10;78.80;;;;;;4919573;29;20030;-62
2022/05/19 10:07:39;;;;;;;0.45;0.45;;;26.80;79.20;;;;;;4912736;29;20039;-64
2022/05/19 10:10:25;;;;;;;0.88;0.80;;;27.10;78.20;;;;;;4930446;29;20542;-62
2022/05/19 10:12:59;;;;;;;0.47;0.28;;;27.30;78.70;;;;;;4918810;29;20048;-63
2022/05/19 10:15:40;;;;;;;0.25;0.25;;;27.20;78.30;;;;;;4907861;29;20165;-63
2022/05/19 10:18:45;;;;;;;0.20;0.20;;;27.20;78.40;;;;;;4919957;29;20030;-63
2022/05/19 10:21:34;;;;;;;1.95;0.70;;;27.30;79.10;;;;;;4923970;29;20044;-62
2022/05/19 10:24:32;;;;;;;0.30;0.25;;;27.50;78.10;;;;;;4906548;29;20496;-63
2022/05/19 10:33:12;;;;;;;0.20;0.17;;;28.20;77.20;;;;;;4919778;29;20522;-63
2022/05/19 10:35:56;;;;;;;0.20;0.20;;;28.40;76.60;;;;;;4893740;29;20048;-64
2022/05/19 10:38:48;;;;;;;0.22;0.10;;;28.30;78.30;;;;;;4914137;29;20104;-63
2022/05/19 10:41:41;;;;;;;0.28;0.25;;;28.50;76.60;;;;;;4913337;29;20496;-63
2022/05/19 10:44:43;;;;;;;0.38;0.17;;;28.30;76.40;;;;;;4915666;29;20039;-63
2022/05/19 10:47:22;;;;;;;0.00;0.00;;;28.40;76.40;;;;;;4915585;29;20523;-63
2022/05/19 10:50:25;;;;;;;1.27;0.43;;;28.40;76.40;;;;;;4910787;29;20514;-63
2022/05/19 10:53:22;;;;;;;0.68;0.38;;;28.60;78.40;;;;;;4915503;29;20501;-63
2022/05/19 10:56:32;;;;;;;0.00;0.00;;;28.70;75.90;;;;;;4912729;29;20039;-63
2022/05/19 10:59:33;;;;;;;4.47;2.05;;;28.80;76.10;;;;;;4915231;29;20048;-63
2022/05/19 11:02:07;;;;;;;1.52;0.40;;;28.90;76.70;;;;;;4875257;29;20056;-64
2022/05/19 11:04:48;;;;;;;0.10;0.10;;;28.90;75.50;;;;;;4898640;29;20033;-64
2022/05/19 11:07:38;;;;;;;2.08;1.17;;;29.20;77.20;;;;;;4915336;29;20047;-62
2022/05/19 11:10:45;;;;;;;0.10;0.05;;;29.30;76.20;;;;;;4914960;29;20062;-63
2022/05/19 11:13:30;;;;;;;0.30;0.22;;;29.20;76.30;;;;;;4914641;29;20523;-62
2022/05/19 11:16:21;;;;;;;0.38;0.22;;;29.80;75.10;;;;;;4911319;29;20028;-65
2022/05/19 11:19:17;;;;;;;0.65;0.47;;;29.70;75.70;;;;;;4909769;29;20033;-62
2022/05/19 11:21:52;;;;;;;0.10;0.10;;;29.70;75.80;;;;;;4908382;29;20813;-62
2022/05/19 11:26:23;;;;;;;0.10;0.10;;;29.80;76.00;;;;;;4895125;29;20028;-62
2022/05/19 11:27:23;;;;;;;1.20;1.02;;;29.70;74.60;;;;;;4911557;29;20088;-62
2022/05/19 11:29:59;;;;;;;0.47;0.43;;;29.90;75.50;;;;;;4912871;29;20032;-62
2022/05/19 11:32:37;;;;;;;0.15;0.15;;;30.00;74.90;;;;;;4916590;29;20024;-62
2022/05/19 11:35:20;;;;;;;1.00;0.65;;;30.00;74.60;;;;;;4917210;29;20126;-62
2022/05/19 11:38:03;;;;;;;0.57;0.55;;;30.20;73.50;;;;;;4914406;29;20036;-63
2022/05/19 11:41:05;;;;;;;3.03;1.75;;;30.70;73.50;;;;;;4913906;29;20503;-63
2022/05/19 11:44:03;;;;;;;0.30;0.30;;;30.60;72.30;;;;;;4894313;29;20071;-63
2022/05/19 11:46:44;;;;;;;2.40;0.28;;;30.50;72.90;;;;;;4907174;29;20370;-62
2022/05/19 11:55:49;;;;;;;1.65;0.45;;;30.50;73.50;;;;;;4898867;29;20127;-63
2022/05/19 11:58:28;;;;;;;3.40;0.45;;;30.60;73.20;;;;;;4913504;29;20492;-63
2022/05/19 12:01:14;;;;;;;0.10;0.10;;;30.40;74.00;;;;;;4913460;29;20369;-63
2022/05/19 12:04:10;;;;;;;0.73;0.40;;;30.30;73.40;;;;;;4913377;29;20515;-62
2022/05/19 12:06:52;;;;;;;0.40;0.35;;;30.30;74.50;;;;;;4915763;29;20103;-63
2022/05/19 12:09:30;;;;;;;0.38;0.38;;;30.30;73.80;;;;;;4908507;29;20532;-63
2022/05/19 12:12:03;;;;;;;0.00;0.00;;;30.30;74.80;;;;;;4908862;29;20099;-63
2022/05/19 12:14:40;;;;;;;0.15;0.15;;;30.50;75.60;;;;;;4912099;29;20396;-63
2022/05/19 12:17:06;;;;;;;0.38;0.32;;;30.80;73.80;;;;;;4899466;29;20200;-62
2022/05/19 12:19:41;;;;;;;0.50;0.50;;;31.00;73.10;;;;;;4898478;29;20059;-62
2022/05/19 12:22:18;;;;;;;0.10;0.10;;;31.10;73.20;;;;;;4911466;29;20502;-63
2022/05/19 12:25:01;;;;;;;0.10;0.10;;;31.10;75.60;;;;;;4911083;29;20037;-63
2022/05/19 12:27:36;;;;;;;0.00;0.00;;;31.50;73.70;;;;;;4914021;29;20028;-63
2022/05/19 12:33:29;;;;;;;2.40;1.23;;;31.30;74.70;;;;;;4895088;29;20088;-62
2022/05/19 12:36:09;;;;;;;0.30;0.25;;;31.30;74.10;;;;;;4925191;29;20108;-63
2022/05/19 12:38:42;;;;;;;0.10;0.10;;;31.00;74.00;;;;;;4913707;29;20032;-64
2022/05/19 12:41:24;;;;;;;0.93;0.55;;;31.40;73.70;;;;;;4912470;29;20024;-63
2022/05/19 12:43:51;;;;;;;0.30;0.30;;;31.50;72.60;;;;;;4912595;29;20028;-63
2022/05/19 12:46:38;;;;;;;3.80;0.95;;;31.80;72.20;;;;;;4908988;29;20033;-63
2022/05/19 12:49:18;;;;;;;4.93;1.27;;;31.80;74.10;;;;;;4903684;29;20043;-63
2022/05/19 12:52:14;;;;;;;0.15;0.15;;;32.00;74.70;;;;;;4911841;29;20033;-64
2022/05/19 12:55:28;;;;;;;0.20;0.20;;;31.40;73.40;;;;;;4918407;29;20437;-64
2022/05/19 12:57:57;;;;;;;1.70;1.02;;;31.70;73.70;;;;;;4922383;29;20044;-62
2022/05/19 13:00:42;;;;;;;0.75;0.63;;;32.10;72.20;;;;;;4923021;29;20028;-62
2022/05/19 13:03:15;;;;;;;0.65;0.55;;;32.30;71.20;;;;;;4917770;29;20099;-62
2022/05/19 13:05:58;;;;;;;0.10;0.08;;;32.40;73.80;;;;;;4917617;29;20500;-62
2022/05/19 13:08:39;;;;;;;0.43;0.28;;;32.60;72.20;;;;;;4916114;29;20032;-63
2022/05/19 13:11:14;;;;;;;1.92;1.02;;;33.30;70.00;;;;;;4912058;29;20103;-62
2022/05/19 13:13:56;;;;;;;0.30;0.30;;;33.30;69.00;;;;;;4898660;29;20047;-62
2022/05/19 13:16:40;;;;;;;0.85;0.75;;;33.10;69.60;;;;;;4905047;29;20024;-62
2022/05/19 13:19:16;;;;;;;0.17;0.17;;;33.20;68.70;;;;;;4899439;29;20397;-62
2022/05/19 13:21:57;;;;;;;1.30;0.70;;;33.40;68.80;;;;;;4910219;29;20033;-62
2022/05/19 13:24:27;;;;;;;2.60;1.00;;;33.00;68.10;;;;;;4903259;29;20043;-62
2022/05/19 13:32:34;;;;;;;2.75;1.60;;;33.10;68.50;;;;;;4935027;29;20059;-62
2022/05/19 13:35:12;;;;;;;0.28;0.13;;;33.00;68.70;;;;;;4926448;29;20462;-62
2022/05/19 13:37:42;;;;;;;1.75;0.80;;;32.80;69.00;;;;;;4925726;29;20020;-63
2022/05/19 13:40:27;;;;;;;0.57;0.57;;;33.30;68.60;;;;;;4924526;29;20487;-62
2022/05/19 13:43:07;;;;;;;0.30;0.30;;;33.30;68.40;;;;;;4913794;29;20053;-62
2022/05/19 13:45:48;;;;;;;0.33;0.30;;;33.60;67.50;;;;;;4921712;29;20439;-62
2022/05/19 13:48:32;;;;;;;0.73;0.70;;;33.50;67.80;;;;;;4920711;29;20302;-62
2022/05/19 13:51:13;;;;;;;6.63;3.60;;;33.60;67.80;;;;;;4914371;29;20032;-63
2022/05/19 13:53:44;;;;;;;0.00;0.00;;;33.60;67.30;;;;;;4911484;29;20508;-62